createdAt,value
2017-11-11T00:00:04.789Z,1001.99
2017-11-11T00:01:04.801Z,1002.03
2017-11-11T00:02:04.825Z,1002.14
2017-11-11T00:03:04.837Z,1002.05
2017-11-11T00:04:04.853Z,1002.09
2017-11-11T00:05:04.873Z,1002.12
2017-11-11T00:06:04.888Z,1002.07
2017-11-11T00:07:04.909Z,1002.1
2017-11-11T00:09:04.943Z,1002.1
2017-11-11T00:10:04.959Z,1002.12
2017-11-11T00:11:04.977Z,1002.13
2017-11-11T00:12:04.991Z,1002.06
2017-11-11T00:13:05.007Z,1002.04
2017-11-11T00:14:05.028Z,1001.97
2017-11-11T00:15:05.045Z,1002.14
2017-11-11T00:16:05.060Z,1002.12
2017-11-11T00:17:05.107Z,1002.1
2017-11-11T00:18:05.091Z,1002.05
2017-11-11T00:19:05.113Z,1002.11
2017-11-11T00:20:05.129Z,1002.11
2017-11-11T00:21:05.146Z,1002.1
2017-11-11T00:22:05.159Z,1001.91
2017-11-11T00:23:05.180Z,1002.1
2017-11-11T00:24:05.198Z,1002.09
2017-11-11T00:25:05.215Z,1002.08
2017-11-11T00:26:05.232Z,1002.06
2017-11-11T00:27:05.248Z,1002.18
2017-11-11T00:28:05.261Z,1002.11
2017-11-11T00:29:05.278Z,1002.09
2017-11-11T00:30:05.296Z,1002.16
2017-11-11T00:31:05.313Z,1002.21
2017-11-11T00:32:05.328Z,1002.23
2017-11-11T00:33:05.352Z,1002.08
2017-11-11T00:34:05.364Z,1002.11
2017-11-11T00:35:05.381Z,1002.14
2017-11-11T00:36:05.397Z,1002.15
2017-11-11T00:37:05.416Z,1002.22
2017-11-11T00:38:05.440Z,1002.27
2017-11-11T00:39:05.447Z,1002.26
2017-11-11T00:41:05.484Z,1002.25
2017-11-11T00:42:05.500Z,1002.32
2017-11-11T00:43:05.515Z,1002.27
2017-11-11T00:44:05.534Z,1002.34
2017-11-11T00:45:05.553Z,1002.27
2017-11-11T00:46:05.571Z,1002.27
2017-11-11T00:47:05.586Z,1002.3
2017-11-11T00:48:05.601Z,1002.33
2017-11-11T00:49:05.617Z,1002.29
2017-11-11T00:50:05.637Z,1002.27
2017-11-11T00:51:05.655Z,1002.3
2017-11-11T00:52:05.671Z,1002.3
2017-11-11T00:53:05.685Z,1002.25
2017-11-11T00:54:05.707Z,1002.28
2017-11-11T00:55:05.721Z,1002.36
2017-11-11T00:57:05.757Z,1002.31
2017-11-11T00:58:05.769Z,1002.27
2017-11-11T00:59:05.790Z,1002.35
2017-11-11T01:00:05.803Z,1002.24
2017-11-11T01:01:05.822Z,1002.32
2017-11-11T01:02:05.840Z,1002.28
2017-11-11T01:03:05.862Z,1002.43
2017-11-11T01:04:05.872Z,1002.35
2017-11-11T01:05:05.890Z,1002.43
2017-11-11T01:06:05.907Z,1002.35
2017-11-11T01:07:05.929Z,1002.25
2017-11-11T01:08:05.940Z,1002.32
2017-11-11T01:09:05.964Z,1002.33
2017-11-11T01:10:05.975Z,1002.24
2017-11-11T01:11:05.996Z,1002.3
2017-11-11T01:13:06.022Z,1002.22
2017-11-11T01:14:06.039Z,1002.22
2017-11-11T01:15:06.064Z,1002.27
2017-11-11T01:16:06.074Z,1002.27
2017-11-11T01:17:06.089Z,1002.3
2017-11-11T01:18:06.112Z,1002.29
2017-11-11T01:19:06.128Z,1002.27
2017-11-11T01:20:06.141Z,1002.34
2017-11-11T01:21:06.157Z,1002.25
2017-11-11T01:22:06.180Z,1002.27
2017-11-11T01:23:06.192Z,1002.31
2017-11-11T01:24:06.217Z,1002.37
2017-11-11T01:25:06.229Z,1002.31
2017-11-11T01:26:06.244Z,1002.27
2017-11-11T01:27:06.263Z,1002.24
2017-11-11T01:29:06.297Z,1002.31
2017-11-11T01:30:06.314Z,1002.27
2017-11-11T01:31:06.330Z,1002.31
2017-11-11T01:32:06.352Z,1002.27
2017-11-11T01:33:06.364Z,1002.23
2017-11-11T01:34:06.377Z,1002.28
2017-11-11T01:35:06.397Z,1002.24
2017-11-11T01:36:06.414Z,1002.21
2017-11-11T01:37:06.428Z,1002.18
2017-11-11T01:38:06.445Z,1002.27
2017-11-11T01:39:06.473Z,1002.1
2017-11-11T01:40:06.482Z,1002.15
2017-11-11T01:41:06.503Z,1002.27
2017-11-11T01:42:06.517Z,1002.12
2017-11-11T01:44:06.552Z,1002.1
2017-11-11T01:45:06.567Z,1002.06
2017-11-11T01:46:06.592Z,1002.09
2017-11-11T01:47:06.602Z,1002.11
2017-11-11T01:48:06.616Z,1002.22
2017-11-11T01:49:06.633Z,1002.05
2017-11-11T01:50:06.652Z,1002.06
2017-11-11T01:51:06.675Z,1002.13
2017-11-11T01:52:06.686Z,1002.08
2017-11-11T01:53:06.703Z,1001.93
2017-11-11T01:54:06.720Z,1002.02
2017-11-11T01:55:06.736Z,1002.04
2017-11-11T01:56:06.753Z,1001.96
2017-11-11T01:57:06.767Z,1002.1
2017-11-11T01:58:06.790Z,1002.06
2017-11-11T01:59:06.805Z,1002.08
2017-11-11T02:00:06.822Z,1001.92
2017-11-11T02:01:06.837Z,1002.05
2017-11-11T02:02:06.852Z,1002.06
2017-11-11T02:03:06.871Z,1002
2017-11-11T02:04:06.890Z,1002.04
2017-11-11T02:05:06.906Z,1002.01
2017-11-11T02:06:06.928Z,1002.08
2017-11-11T02:07:06.935Z,1001.96
2017-11-11T02:08:06.955Z,1002.03
2017-11-11T02:09:06.971Z,1002.06
2017-11-11T02:10:07.005Z,1002.08
2017-11-11T02:11:07.005Z,1001.99
2017-11-11T02:12:07.023Z,1001.99
2017-11-11T02:13:07.041Z,1002.05
2017-11-11T02:14:07.057Z,1002.01
2017-11-11T02:16:07.087Z,1001.97
2017-11-11T02:17:07.104Z,1002.04
2017-11-11T02:18:07.121Z,1002.02
2017-11-11T02:19:07.137Z,1001.95
2017-11-11T02:20:07.155Z,1002.05
2017-11-11T02:21:07.172Z,1002.02
2017-11-11T02:22:07.189Z,1002.08
2017-11-11T02:23:07.209Z,1001.93
2017-11-11T02:24:07.222Z,1001.98
2017-11-11T02:25:07.243Z,1001.98
2017-11-11T02:26:07.259Z,1001.95
2017-11-11T02:27:07.273Z,1001.96
2017-11-11T02:28:07.300Z,1001.99
2017-11-11T02:29:07.305Z,1001.99
2017-11-11T02:30:07.323Z,1002.03
2017-11-11T02:32:07.357Z,1001.96
2017-11-11T02:33:07.380Z,1001.9
2017-11-11T02:34:07.391Z,1001.85
2017-11-11T02:35:07.409Z,1001.99
2017-11-11T02:36:07.433Z,1001.97
2017-11-11T02:37:07.441Z,1001.91
2017-11-11T02:38:07.459Z,1001.93
2017-11-11T02:39:07.475Z,1001.91
2017-11-11T02:40:07.496Z,1001.91
2017-11-11T02:41:07.511Z,1001.83
2017-11-11T02:42:07.528Z,1001.85
2017-11-11T02:43:07.545Z,1001.83
2017-11-11T02:44:07.558Z,1001.87
2017-11-11T02:45:07.580Z,1001.85
2017-11-11T02:46:07.596Z,1001.69
2017-11-11T02:48:07.626Z,1001.85
2017-11-11T02:49:07.649Z,1001.89
2017-11-11T02:50:07.661Z,1001.9
2017-11-11T02:51:07.676Z,1001.88
2017-11-11T02:52:07.699Z,1001.92
2017-11-11T02:53:07.711Z,1001.91
2017-11-11T02:54:07.732Z,1001.96
2017-11-11T02:55:07.754Z,1001.94
2017-11-11T02:56:07.764Z,1001.89
2017-11-11T02:57:07.781Z,1001.94
2017-11-11T02:58:07.837Z,1001.94
2017-11-11T02:59:07.814Z,1001.84
2017-11-11T03:00:07.827Z,1001.87
2017-11-11T03:01:07.854Z,1001.85
2017-11-11T03:02:07.865Z,1001.85
2017-11-11T03:04:07.899Z,1001.89
2017-11-11T03:05:07.914Z,1001.92
2017-11-11T03:06:07.931Z,1001.77
2017-11-11T03:07:07.948Z,1001.74
2017-11-11T03:08:07.962Z,1001.9
2017-11-11T03:09:07.982Z,1001.8
2017-11-11T03:10:07.998Z,1001.85
2017-11-11T03:11:08.016Z,1001.9
2017-11-11T03:12:08.032Z,1001.86
2017-11-11T03:13:08.045Z,1001.85
2017-11-11T03:14:08.065Z,1001.86
2017-11-11T03:15:08.083Z,1001.96
2017-11-11T03:16:08.099Z,1001.9
2017-11-11T03:17:08.114Z,1001.89
2017-11-11T03:19:08.148Z,1001.91
2017-11-11T03:20:08.164Z,1001.89
2017-11-11T03:21:08.182Z,1001.96
2017-11-11T03:22:08.201Z,1001.88
2017-11-11T03:23:08.220Z,1001.89
2017-11-11T03:24:08.238Z,1001.92
2017-11-11T03:25:08.248Z,1001.86
2017-11-11T03:26:08.268Z,1001.83
2017-11-11T03:27:08.280Z,1001.84
2017-11-11T03:28:08.308Z,1001.72
2017-11-11T03:29:08.318Z,1001.77
2017-11-11T03:30:08.333Z,1001.81
2017-11-11T03:31:08.355Z,1001.75
2017-11-11T03:32:08.365Z,1001.86
2017-11-11T03:33:08.387Z,1001.75
2017-11-11T03:34:08.400Z,1001.79
2017-11-11T03:35:08.420Z,1001.74
2017-11-11T03:36:08.434Z,1001.75
2017-11-11T03:37:08.450Z,1001.76
2017-11-11T03:38:08.468Z,1001.72
2017-11-11T03:39:08.483Z,1001.78
2017-11-11T03:40:08.504Z,1001.77
2017-11-11T03:41:08.521Z,1001.74
2017-11-11T03:42:08.540Z,1001.82
2017-11-11T03:43:08.553Z,1001.69
2017-11-11T03:44:08.572Z,1001.74
2017-11-11T03:45:08.584Z,1001.73
2017-11-11T03:46:08.601Z,1001.71
2017-11-11T03:47:08.618Z,1001.71
2017-11-11T03:48:08.637Z,1001.78
2017-11-11T03:49:08.650Z,1001.72
2017-11-11T03:51:08.685Z,1001.62
2017-11-11T03:52:08.706Z,1001.67
2017-11-11T03:53:08.722Z,1001.66
2017-11-11T03:54:08.736Z,1001.71
2017-11-11T03:55:08.753Z,1001.64
2017-11-11T03:56:08.768Z,1001.72
2017-11-11T03:57:08.785Z,1001.63
2017-11-11T03:58:08.803Z,1001.65
2017-11-11T03:59:08.828Z,1001.65
2017-11-11T04:00:08.837Z,1001.65
2017-11-11T04:01:08.856Z,1001.69
2017-11-11T04:02:08.873Z,1001.56
2017-11-11T04:03:08.888Z,1001.65
2017-11-11T04:04:08.906Z,1001.65
2017-11-11T04:05:08.930Z,1001.66
2017-11-11T04:07:08.957Z,1001.6
2017-11-11T04:08:08.975Z,1001.66
2017-11-11T04:09:08.990Z,1001.66
2017-11-11T04:10:09.005Z,1001.7
2017-11-11T04:11:09.023Z,1001.71
2017-11-11T04:12:09.038Z,1001.71
2017-11-11T04:13:09.056Z,1001.68
2017-11-11T04:14:09.074Z,1001.78
2017-11-11T04:15:09.093Z,1001.77
2017-11-11T04:16:09.109Z,1001.66
2017-11-11T04:17:09.123Z,1001.71
2017-11-11T04:18:09.144Z,1001.72
2017-11-11T04:19:09.160Z,1001.67
2017-11-11T04:20:09.175Z,1001.75
2017-11-11T04:21:09.193Z,1001.72
2017-11-11T04:23:09.223Z,1001.71
2017-11-11T04:24:09.240Z,1001.8
2017-11-11T04:25:09.257Z,1001.74
2017-11-11T04:26:09.274Z,1001.7
2017-11-11T04:27:09.294Z,1001.65
2017-11-11T04:28:09.307Z,1001.71
2017-11-11T04:29:09.328Z,1001.66
2017-11-11T04:30:09.340Z,1001.7
2017-11-11T04:31:09.361Z,1001.66
2017-11-11T04:32:09.377Z,1001.58
2017-11-11T04:33:09.394Z,1001.58
2017-11-11T04:34:09.410Z,1001.6
2017-11-11T04:35:09.425Z,1001.6
2017-11-11T04:36:09.443Z,1001.54
2017-11-11T04:37:09.463Z,1001.56
2017-11-11T04:39:09.494Z,1001.64
2017-11-11T04:40:09.509Z,1001.62
2017-11-11T04:41:09.538Z,1001.56
2017-11-11T04:42:09.551Z,1001.58
2017-11-11T04:43:09.560Z,1001.58
2017-11-11T04:44:09.582Z,1001.57
2017-11-11T04:45:09.593Z,1001.58
2017-11-11T04:46:09.613Z,1001.56
2017-11-11T04:47:09.627Z,1001.62
2017-11-11T04:48:09.655Z,1001.61
2017-11-11T04:49:09.664Z,1001.66
2017-11-11T04:50:09.681Z,1001.57
2017-11-11T04:51:09.702Z,1001.62
2017-11-11T04:52:09.713Z,1001.66
2017-11-11T04:54:09.746Z,1001.59
2017-11-11T04:55:09.762Z,1001.58
2017-11-11T04:56:09.779Z,1001.57
2017-11-11T04:57:09.801Z,1001.53
2017-11-11T04:58:09.817Z,1001.6
2017-11-11T04:59:09.830Z,1001.6
2017-11-11T05:00:09.847Z,1001.63
2017-11-11T05:01:09.864Z,1001.5
2017-11-11T05:02:09.880Z,1001.6
2017-11-11T05:03:09.900Z,1001.64
2017-11-11T05:04:09.925Z,1001.57
2017-11-11T05:05:09.934Z,1001.6
2017-11-11T05:06:09.951Z,1001.59
2017-11-11T05:07:09.969Z,1001.57
2017-11-11T05:08:09.985Z,1001.65
2017-11-11T05:09:09.999Z,1001.56
2017-11-11T05:10:10.016Z,1001.65
2017-11-11T05:11:10.032Z,1001.63
2017-11-11T05:12:10.053Z,1001.67
2017-11-11T05:13:10.069Z,1001.62
2017-11-11T05:14:10.082Z,1001.62
2017-11-11T05:15:10.103Z,1001.68
2017-11-11T05:16:10.118Z,1001.55
2017-11-11T05:17:10.148Z,1001.61
2017-11-11T05:18:10.151Z,1001.6
2017-11-11T05:19:10.171Z,1001.59
2017-11-11T05:20:10.188Z,1001.69
2017-11-11T05:21:10.201Z,1001.71
2017-11-11T05:22:10.219Z,1001.65
2017-11-11T05:23:10.235Z,1001.65
2017-11-11T05:24:10.255Z,1001.64
2017-11-11T05:26:10.288Z,1001.7
2017-11-11T05:27:10.303Z,1001.64
2017-11-11T05:28:10.322Z,1001.66
2017-11-11T05:29:10.339Z,1001.71
2017-11-11T05:30:10.356Z,1001.64
2017-11-11T05:31:10.370Z,1001.7
2017-11-11T05:32:10.385Z,1001.65
2017-11-11T05:33:10.404Z,1001.63
2017-11-11T05:34:10.421Z,1001.61
2017-11-11T05:35:10.437Z,1001.69
2017-11-11T05:36:10.453Z,1001.63
2017-11-11T05:37:10.473Z,1001.74
2017-11-11T05:38:10.488Z,1001.71
2017-11-11T05:39:10.512Z,1001.61
2017-11-11T05:40:10.526Z,1001.57
2017-11-11T05:42:10.559Z,1001.68
2017-11-11T05:43:10.575Z,1001.73
2017-11-11T05:44:10.592Z,1001.68
2017-11-11T05:45:10.605Z,1001.65
2017-11-11T05:46:10.621Z,1001.67
2017-11-11T05:47:10.642Z,1001.71
2017-11-11T05:48:10.659Z,1001.57
2017-11-11T05:49:10.675Z,1001.62
2017-11-11T05:50:10.690Z,1001.67
2017-11-11T05:51:10.708Z,1001.71
2017-11-11T05:52:10.728Z,1001.66
2017-11-11T05:53:10.744Z,1001.69
2017-11-11T05:54:10.758Z,1001.67
2017-11-11T05:55:10.776Z,1001.65
2017-11-11T05:56:10.792Z,1001.66
2017-11-11T05:58:10.827Z,1001.68
2017-11-11T05:59:10.851Z,1001.65
2017-11-11T06:00:10.859Z,1001.63
2017-11-11T06:01:10.876Z,1001.64
2017-11-11T06:02:10.893Z,1001.63
2017-11-11T06:03:10.908Z,1001.67
2017-11-11T06:04:10.932Z,1001.57
2017-11-11T06:05:10.942Z,1001.61
2017-11-11T06:06:10.957Z,1001.54
2017-11-11T06:07:10.975Z,1001.63
2017-11-11T06:08:10.994Z,1001.59
2017-11-11T06:09:11.008Z,1001.61
2017-11-11T06:10:11.023Z,1001.61
2017-11-11T06:11:11.042Z,1001.6
2017-11-11T06:12:11.057Z,1001.57
2017-11-11T06:14:11.093Z,1001.55
2017-11-11T06:15:11.109Z,1001.55
2017-11-11T06:16:11.124Z,1001.61
2017-11-11T06:17:11.141Z,1001.59
2017-11-11T06:18:11.158Z,1001.62
2017-11-11T06:19:11.173Z,1001.66
2017-11-11T06:20:11.195Z,1001.61
2017-11-11T06:21:11.216Z,1001.66
2017-11-11T06:22:11.232Z,1001.58
2017-11-11T06:23:11.242Z,1001.64
2017-11-11T06:24:11.259Z,1001.63
2017-11-11T06:25:11.276Z,1001.57
2017-11-11T06:26:11.296Z,1001.63
2017-11-11T06:27:11.313Z,1001.56
2017-11-11T06:29:11.343Z,1001.6
2017-11-11T06:30:11.364Z,1001.54
2017-11-11T06:31:11.380Z,1001.54
2017-11-11T06:32:11.393Z,1001.58
2017-11-11T06:33:11.412Z,1001.57
2017-11-11T06:34:11.430Z,1001.56
2017-11-11T06:35:11.444Z,1001.55
2017-11-11T06:36:11.461Z,1001.51
2017-11-11T06:37:11.480Z,1001.51
2017-11-11T06:38:11.494Z,1001.52
2017-11-11T06:39:11.513Z,1001.58
2017-11-11T06:40:11.531Z,1001.57
2017-11-11T06:41:11.556Z,1001.56
2017-11-11T06:42:11.564Z,1001.51
2017-11-11T06:43:11.581Z,1001.56
2017-11-11T06:44:11.595Z,1001.61
2017-11-11T06:45:11.612Z,1001.56
2017-11-11T06:46:11.632Z,1001.52
2017-11-11T06:47:11.657Z,1001.59
2017-11-11T06:48:11.662Z,1001.58
2017-11-11T06:49:11.678Z,1001.58
2017-11-11T06:50:11.695Z,1001.61
2017-11-11T06:51:11.714Z,1001.64
2017-11-11T06:52:11.732Z,1001.59
2017-11-11T06:53:11.744Z,1001.54
2017-11-11T06:54:11.765Z,1001.6
2017-11-11T06:55:11.780Z,1001.61
2017-11-11T06:56:11.795Z,1001.61
2017-11-11T06:57:11.816Z,1001.59
2017-11-11T06:58:11.830Z,1001.61
2017-11-11T06:59:11.845Z,1001.61
2017-11-11T07:01:11.879Z,1001.59
2017-11-11T07:02:11.899Z,1001.58
2017-11-11T07:03:11.913Z,1001.58
2017-11-11T07:04:11.933Z,1001.57
2017-11-11T07:05:11.948Z,1001.54
2017-11-11T07:06:11.964Z,1001.61
2017-11-11T07:07:11.979Z,1001.61
2017-11-11T07:08:11.997Z,1001.6
2017-11-11T07:09:12.017Z,1001.62
2017-11-11T07:10:12.033Z,1001.58
2017-11-11T07:11:12.048Z,1001.63
2017-11-11T07:12:12.069Z,1001.64
2017-11-11T07:13:12.081Z,1001.55
2017-11-11T07:14:12.096Z,1001.59
2017-11-11T07:15:12.117Z,1001.59
2017-11-11T07:17:12.147Z,1001.6
2017-11-11T07:18:12.164Z,1001.59
2017-11-11T07:19:12.180Z,1001.69
2017-11-11T07:20:12.200Z,1001.6
2017-11-11T07:21:12.215Z,1001.58
2017-11-11T07:22:12.230Z,1001.62
2017-11-11T07:23:12.256Z,1001.59
2017-11-11T07:24:12.266Z,1001.57
2017-11-11T07:25:12.285Z,1001.6
2017-11-11T07:26:12.297Z,1001.53
2017-11-11T07:27:12.315Z,1001.56
2017-11-11T07:28:12.336Z,1001.6
2017-11-11T07:29:12.349Z,1001.58
2017-11-11T07:30:12.370Z,1001.52
2017-11-11T07:31:12.383Z,1001.53
2017-11-11T07:33:12.419Z,1001.54
2017-11-11T07:34:12.437Z,1001.55
2017-11-11T07:35:12.452Z,1001.51
2017-11-11T07:36:12.469Z,1001.51
2017-11-11T07:37:12.487Z,1001.53
2017-11-11T07:38:12.500Z,1001.53
2017-11-11T07:39:12.517Z,1001.54
2017-11-11T07:40:12.537Z,1001.46
2017-11-11T07:41:12.554Z,1001.49
2017-11-11T07:42:12.573Z,1001.52
2017-11-11T07:43:12.588Z,1001.53
2017-11-11T07:44:12.606Z,1001.54
2017-11-11T07:45:12.619Z,1001.55
2017-11-11T07:46:12.640Z,1001.59
2017-11-11T07:47:12.657Z,1001.48
2017-11-11T07:49:12.691Z,1001.51
2017-11-11T07:50:12.705Z,1001.51
2017-11-11T07:51:12.722Z,1001.49
2017-11-11T07:52:12.739Z,1001.49
2017-11-11T07:53:12.756Z,1001.41
2017-11-11T07:54:12.775Z,1001.43
2017-11-11T07:55:12.791Z,1001.44
2017-11-11T07:56:12.809Z,1001.5
2017-11-11T07:57:12.825Z,1001.47
2017-11-11T07:58:12.842Z,1001.52
2017-11-11T07:59:12.863Z,1001.47
2017-11-11T08:00:12.883Z,1001.4
2017-11-11T08:01:12.897Z,1001.48
2017-11-11T08:02:12.912Z,1001.45
2017-11-11T08:04:12.951Z,1001.43
2017-11-11T08:05:12.966Z,1001.48
2017-11-11T08:06:12.984Z,1001.49
2017-11-11T08:07:13.003Z,1001.49
2017-11-11T08:08:13.016Z,1001.44
2017-11-11T08:09:13.033Z,1001.39
2017-11-11T08:10:13.052Z,1001.39
2017-11-11T08:11:13.067Z,1001.41
2017-11-11T08:12:13.090Z,1001.47
2017-11-11T08:13:13.101Z,1001.43
2017-11-11T08:14:13.123Z,1001.43
2017-11-11T08:15:13.140Z,1001.43
2017-11-11T08:16:13.158Z,1001.39
2017-11-11T08:17:13.174Z,1001.44
2017-11-11T08:18:13.192Z,1001.43
2017-11-11T08:19:13.210Z,1001.39
2017-11-11T08:20:13.226Z,1001.38
2017-11-11T08:21:13.244Z,1001.41
2017-11-11T08:22:13.262Z,1001.27
2017-11-11T08:23:13.279Z,1001.34
2017-11-11T08:24:13.297Z,1001.33
2017-11-11T08:25:13.313Z,1001.31
2017-11-11T08:26:13.327Z,1001.27
2017-11-11T08:27:13.347Z,1001.32
2017-11-11T08:28:13.367Z,1001.24
2017-11-11T08:29:13.386Z,1001.36
2017-11-11T08:30:13.404Z,1001.34
2017-11-11T08:31:13.419Z,1001.29
2017-11-11T08:32:13.436Z,1001.29
2017-11-11T08:33:13.451Z,1001.34
2017-11-11T08:34:13.469Z,1001.25
2017-11-11T08:36:13.502Z,1001.24
2017-11-11T08:37:13.522Z,1001.18
2017-11-11T08:38:13.539Z,1001.3
2017-11-11T08:39:13.558Z,1001.18
2017-11-11T08:40:13.574Z,1001.15
2017-11-11T08:41:13.593Z,1001.26
2017-11-11T08:42:13.607Z,1001.17
2017-11-11T08:43:13.631Z,1001.17
2017-11-11T08:44:13.643Z,1001.15
2017-11-11T08:45:13.658Z,1001.14
2017-11-11T08:46:13.679Z,1001.13
2017-11-11T08:47:13.695Z,1001.13
2017-11-11T08:48:13.710Z,1001.1
2017-11-11T08:49:13.727Z,1001.14
2017-11-11T08:50:13.749Z,1001.07
2017-11-11T08:52:13.783Z,1001.08
2017-11-11T08:53:13.808Z,1001.17
2017-11-11T08:54:13.819Z,1001.12
2017-11-11T08:55:13.835Z,1001.15
2017-11-11T08:56:13.853Z,1001.13
2017-11-11T08:57:13.871Z,1001.09
2017-11-11T08:58:13.889Z,1001.1
2017-11-11T08:59:13.905Z,1001.17
2017-11-11T09:00:13.923Z,1001.11
2017-11-11T09:01:13.938Z,1001.13
2017-11-11T09:02:13.955Z,1001.14
2017-11-11T09:03:13.976Z,1001.14
2017-11-11T09:04:13.993Z,1001.2
2017-11-11T09:05:14.010Z,1001.11
2017-11-11T09:06:14.028Z,1001.08
2017-11-11T09:08:14.062Z,1001.12
2017-11-11T09:09:14.081Z,1001.12
2017-11-11T09:10:14.097Z,1001.18
2017-11-11T09:11:14.113Z,1001.13
2017-11-11T09:12:14.129Z,1001.1
2017-11-11T09:13:14.149Z,1001.07
2017-11-11T09:14:14.164Z,1001.1
2017-11-11T09:15:14.183Z,1001.07
2017-11-11T09:16:14.197Z,1001.11
2017-11-11T09:17:14.220Z,1001.07
2017-11-11T09:18:14.232Z,1001.16
2017-11-11T09:19:14.248Z,1001.16
2017-11-11T09:20:14.270Z,1001.12
2017-11-11T09:21:14.286Z,1001.13
2017-11-11T09:22:14.302Z,1001.12
2017-11-11T09:24:14.346Z,1001.14
2017-11-11T09:25:14.353Z,1001.16
2017-11-11T09:26:14.372Z,1001.13
2017-11-11T09:27:14.387Z,1001.08
2017-11-11T09:28:14.406Z,1001.15
2017-11-11T09:29:14.422Z,1001.07
2017-11-11T09:30:14.439Z,1001.04
2017-11-11T09:31:14.464Z,1001.01
2017-11-11T09:32:14.480Z,1001.13
2017-11-11T09:33:14.494Z,1001.06
2017-11-11T09:34:14.511Z,1001.13
2017-11-11T09:35:14.526Z,1001.01
2017-11-11T09:36:14.547Z,1001.04
2017-11-11T09:37:14.564Z,1000.94
2017-11-11T09:39:14.601Z,1000.98
2017-11-11T09:40:14.616Z,1000.93
2017-11-11T09:41:14.634Z,1000.97
2017-11-11T09:42:14.651Z,1001
2017-11-11T09:43:14.665Z,1000.96
2017-11-11T09:44:14.682Z,1000.93
2017-11-11T09:45:14.704Z,1000.96
2017-11-11T09:46:14.717Z,1000.91
2017-11-11T09:47:14.737Z,1000.93
2017-11-11T09:48:14.754Z,1000.93
2017-11-11T09:49:14.773Z,1000.9
2017-11-11T09:50:14.787Z,1000.93
2017-11-11T09:51:14.802Z,1000.91
2017-11-11T09:52:14.825Z,1000.9
2017-11-11T09:53:14.839Z,1000.83
2017-11-11T09:54:14.864Z,1000.82
2017-11-11T09:55:14.876Z,1000.85
2017-11-11T09:56:14.893Z,1000.76
2017-11-11T09:57:14.908Z,1000.87
2017-11-11T09:58:14.928Z,1000.83
2017-11-11T09:59:14.950Z,1000.72
2017-11-11T10:00:14.964Z,1000.83
2017-11-11T10:01:14.981Z,1000.8
2017-11-11T10:02:14.995Z,1000.77
2017-11-11T10:03:15.017Z,1000.77
2017-11-11T10:04:15.035Z,1000.79
2017-11-11T10:05:15.051Z,1000.74
2017-11-11T10:06:15.064Z,1000.81
2017-11-11T10:07:15.087Z,1000.73
2017-11-11T10:08:15.102Z,1000.72
2017-11-11T10:09:15.121Z,1000.81
2017-11-11T10:11:15.152Z,1000.7
2017-11-11T10:12:15.171Z,1000.7
2017-11-11T10:13:15.188Z,1000.68
2017-11-11T10:14:15.209Z,1000.7
2017-11-11T10:15:15.223Z,1000.67
2017-11-11T10:16:15.245Z,1000.65
2017-11-11T10:17:15.263Z,1000.61
2017-11-11T10:18:15.278Z,1000.59
2017-11-11T10:19:15.297Z,1000.63
2017-11-11T10:20:15.314Z,1000.63
2017-11-11T10:21:15.329Z,1000.6
2017-11-11T10:22:15.350Z,1000.6
2017-11-11T10:23:15.365Z,1000.6
2017-11-11T10:24:15.389Z,1000.59
2017-11-11T10:25:15.401Z,1000.59
2017-11-11T10:27:15.439Z,1000.58
2017-11-11T10:28:15.461Z,1000.58
2017-11-11T10:29:15.472Z,1000.56
2017-11-11T10:30:15.496Z,1000.61
2017-11-11T10:31:15.509Z,1000.61
2017-11-11T10:32:15.530Z,1000.61
2017-11-11T10:33:15.547Z,1000.63
2017-11-11T10:34:15.565Z,1000.56
2017-11-11T10:35:15.585Z,1000.46
2017-11-11T10:36:15.604Z,1000.63
2017-11-11T10:37:15.621Z,1000.53
2017-11-11T10:38:15.638Z,1000.54
2017-11-11T10:39:15.655Z,1000.59
2017-11-11T10:40:15.677Z,1000.56
2017-11-11T10:41:15.695Z,1000.46
2017-11-11T10:43:15.729Z,1000.43
2017-11-11T10:44:15.747Z,1000.43
2017-11-11T10:45:15.773Z,1000.48
2017-11-11T10:46:15.790Z,1000.44
2017-11-11T10:47:15.808Z,1000.42
2017-11-11T10:48:15.829Z,1000.46
2017-11-11T10:49:15.842Z,1000.37
2017-11-11T10:50:15.858Z,1000.38
2017-11-11T10:51:15.878Z,1000.38
2017-11-11T10:52:15.898Z,1000.4
2017-11-11T10:53:15.915Z,1000.28
2017-11-11T10:54:15.930Z,1000.41
2017-11-11T10:55:15.950Z,1000.38
2017-11-11T10:56:15.970Z,1000.34
2017-11-11T10:57:15.987Z,1000.37
2017-11-11T10:59:16.020Z,1000.35
2017-11-11T11:00:16.043Z,1000.33
2017-11-11T11:01:16.060Z,1000.35
2017-11-11T11:02:16.078Z,1000.29
2017-11-11T11:03:16.096Z,1000.29
2017-11-11T11:04:16.114Z,1000.3
2017-11-11T11:05:16.129Z,1000.28
2017-11-11T11:06:16.146Z,1000.28
2017-11-11T11:07:16.168Z,1000.18
2017-11-11T11:08:16.186Z,1000.28
2017-11-11T11:09:16.204Z,1000.23
2017-11-11T11:10:16.218Z,1000.19
2017-11-11T11:11:16.236Z,1000.2
2017-11-11T11:12:16.258Z,1000.14
2017-11-11T11:14:16.293Z,1000.08
2017-11-11T11:15:16.311Z,1000.11
2017-11-11T11:16:16.328Z,1000.15
2017-11-11T11:17:16.348Z,1000.12
2017-11-11T11:18:16.365Z,1000.1
2017-11-11T11:19:16.384Z,1000.09
2017-11-11T11:20:16.402Z,1000.07
2017-11-11T11:21:16.419Z,1000.08
2017-11-11T11:22:16.437Z,1000.08
2017-11-11T11:23:16.454Z,1000.04
2017-11-11T11:24:16.472Z,1000.05
2017-11-11T11:25:16.491Z,1000.03
2017-11-11T11:26:16.506Z,1000.02
2017-11-11T11:27:16.523Z,1000.02
2017-11-11T11:28:16.544Z,999.99
2017-11-11T11:29:16.560Z,1000.02
2017-11-11T11:30:16.575Z,1000.01
2017-11-11T11:31:16.594Z,999.98
2017-11-11T11:32:16.617Z,999.99
2017-11-11T11:33:16.665Z,1000
2017-11-11T11:34:16.647Z,999.98
2017-11-11T11:35:16.672Z,999.94
2017-11-11T11:36:16.687Z,999.96
2017-11-11T11:37:16.706Z,999.93
2017-11-11T11:38:16.720Z,999.89
2017-11-11T11:39:16.738Z,999.94
2017-11-11T11:40:16.758Z,999.9
2017-11-11T11:41:16.777Z,999.84
2017-11-11T11:42:16.790Z,999.8
2017-11-11T11:43:16.809Z,999.83
2017-11-11T11:44:16.826Z,999.78
2017-11-11T11:46:16.868Z,999.83
2017-11-11T11:47:16.885Z,999.84
2017-11-11T11:48:16.897Z,999.8
2017-11-11T11:49:16.918Z,999.81
2017-11-11T11:50:16.938Z,999.81
2017-11-11T11:51:16.954Z,999.76
2017-11-11T11:52:16.971Z,999.8
2017-11-11T11:53:16.989Z,999.78
2017-11-11T11:54:17.006Z,999.75
2017-11-11T11:55:17.024Z,999.75
2017-11-11T11:56:17.043Z,999.76
2017-11-11T11:57:17.058Z,999.79
2017-11-11T11:58:17.077Z,999.74
2017-11-11T11:59:17.106Z,999.69
2017-11-11T12:00:17.114Z,999.76
2017-11-11T12:02:17.150Z,999.82
2017-11-11T12:03:17.165Z,999.84
2017-11-11T12:04:17.183Z,999.81
2017-11-11T12:05:17.201Z,999.7
2017-11-11T12:06:17.221Z,999.68
2017-11-11T12:07:17.239Z,999.7
2017-11-11T12:08:17.254Z,999.75
2017-11-11T12:09:17.274Z,999.66
2017-11-11T12:10:17.292Z,999.73
2017-11-11T12:11:17.307Z,999.74
2017-11-11T12:12:17.326Z,999.72
2017-11-11T12:13:17.346Z,999.7
2017-11-11T12:14:17.365Z,999.65
2017-11-11T12:15:17.382Z,999.67
2017-11-11T12:16:17.400Z,999.65
2017-11-11T12:18:17.435Z,999.6
2017-11-11T12:19:17.453Z,999.57
2017-11-11T12:20:17.468Z,999.59
2017-11-11T12:21:17.487Z,999.64
2017-11-11T12:22:17.505Z,999.55
2017-11-11T12:23:17.521Z,999.58
2017-11-11T12:24:17.544Z,999.54
2017-11-11T12:25:17.564Z,999.52
2017-11-11T12:26:17.576Z,999.51
2017-11-11T12:27:17.604Z,999.58
2017-11-11T12:28:17.610Z,999.45
2017-11-11T12:29:17.629Z,999.44
2017-11-11T12:30:17.651Z,999.35
2017-11-11T12:31:17.669Z,999.31
2017-11-11T12:32:17.684Z,999.3
2017-11-11T12:34:17.723Z,999.33
2017-11-11T12:35:17.741Z,999.28
2017-11-11T12:36:17.758Z,999.32
2017-11-11T12:37:17.776Z,999.33
2017-11-11T12:38:17.795Z,999.29
2017-11-11T12:39:17.812Z,999.27
2017-11-11T12:40:17.832Z,999.29
2017-11-11T12:41:17.849Z,999.23
2017-11-11T12:42:17.868Z,999.19
2017-11-11T12:43:17.886Z,999.25
2017-11-11T12:44:17.900Z,999.18
2017-11-11T12:45:17.921Z,999.11
2017-11-11T12:46:17.937Z,999.09
2017-11-11T12:47:17.956Z,999.11
2017-11-11T12:49:17.996Z,999.11
2017-11-11T12:50:18.359Z,999.1
2017-11-11T12:51:18.028Z,999.14